Laird Hill, Texas
Current Conditions -  °F | °C
As of 7:29 AM on Sunday 23 Nov 2014 (Local Time) from KGGG Reporting Station
Light Rain Light Rain  
Wind Chill: 61°   Ceiling: 900
Heat Index: 61°   Visibility: 10mi
Dew Point: 60°   Wind: 3mph
Humidity: 97%   Direction: 120°ESE
Pressure: 29.59"   Gusts: NA
Location:  32.35°N, 94.91°W
Report Text: KGGG 231329Z 12003KT 10SM -RA BKN009 BKN019 OVC085 16/16 A2959 RMK AO2 P0002 T01610156
Loading
Personal Weather Stations






























Interactive Weather Map New forecast layout! Learn more

10-Day Weather Forecast

Advertisements
Track Severe Weather on mobile